Groves, North Carolina
Current Conditions -  °F | °C
As of 8:54 AM on Saturday 25 Oct 2014 (Local Time) from KAKH Reporting Station
Clear Clear  
Wind Chill: 51°   Ceiling: Unl
Heat Index: 51°   Visibility: 10mi
Dew Point: 43°   Wind: 5mph
Humidity: 74%   Direction: 360°N
Pressure: 30.05"   Gusts: NA
Location:  35.2205°N, 81.2501°W
Report Text: KAKH 251254Z AUTO 36004KT 10SM CLR 11/06 A3005 RMK AO2 SLP175 T01060061
Loading
Personal Weather Stations






























Interactive Weather Map
Tropical Storm Tracking
New forecast layout! Learn more

10-Day Weather Forecast

Advertisements
Track Severe Weather on mobile